• Join FlightAware (Why Join?)
  • Login
  • US Flag 
02:44AM EDT


 

Airport Tracker/Info


-or-


 

Live Flight TrackerFlight Track Log ✈ N4644J ✈ 05-Jun-2013 ✈ KGWW - KEYF

Flight Track Log - Related Links

Times and Time Zones

All times are in EDT time to prevent confusion due to time zone crossing. See the N4644J flight status page for this flight to view local times or setup timezone preferences in your user account.

Time Position Orientation Groundspeed Altitude Reporting Facility
EDT Latitude Longitude Course Direction KTS MPH feet Rate Location/Type
06:09PM 35.2118 -78.1444 211° Southwest  Level Estimated
06:10PM 35.1807 -78.1668 210° Southwest  Level Estimated
06:11PM 35.1496 -78.1891 210° Southwest  Level Estimated
06:12PM 35.1185 -78.2114 210° Southwest  Level Estimated
06:13PM 35.0874 -78.2337 210° Southwest  Level Estimated
06:14PM 35.0563 -78.2560 210° Southwest  Level Estimated
06:15PM 35.0251 -78.2783 210° Southwest  Level Estimated
06:16PM 34.9940 -78.3006 210° Southwest  Level Estimated
06:17PM 34.9628 -78.3228 210° Southwest  Level Estimated
06:18PM 34.9317 -78.3450 210° Southwest  Level Estimated
06:19PM 34.9006 -78.3672 210° Southwest  Level Estimated
06:20PM 34.8694 -78.3894 210° Southwest  Level Estimated
06:21PM 34.8383 -78.4116 210° Southwest  Level Estimated
06:22PM 34.8071 -78.4338 210° Southwest  Level Estimated
06:23PM 34.7760 -78.4559 210° Southwest  Level Estimated
06:24PM 34.7448 -78.4780 210° Southwest  Level Estimated
06:25PM 34.7136 -78.5001 210° Southwest  Level Estimated
06:26PM 34.6824 -78.5222 210° Southwest  Level Estimated
06:27PM 34.6513 -78.5443 210° Southwest  Level Estimated
06:28PM 34.6201 -78.5664 210° Southwest  Level Estimated
06:29PM 34.6018 -78.5793 210° Southwest  Level Estimated
06:30PM 34.6018 -78.5793 351° North  Level Estimated
06:31PM 34.6018 -78.5793 351° North  Level Estimated
06:32PM 34.6018 -78.5793 351° North  Level Estimated
06:33PM 34.6018 -78.5793 351° North  Level Estimated
06:34PM 34.6018 -78.5793 351° North  Level Estimated
06:35PM 34.6018 -78.5793 351° North  Level Estimated
06:36PM 34.6018 -78.5793 351° North  Level Estimated
06:37PM 34.6018 -78.5793 351° North  Level Estimated
06:38PM 34.6018 -78.5793 351° North  Level Estimated